Time;durP1;ratioP1;P1;durP2;ratioP2;P2;SDS_P1;SDS_P2;PMS_P1;PMS_P2;Temp;Humidity;BMP_temperature;BMP_pressure;BME280_temperature;BME280_humidity;BME280_pressure;Samples;Min_cycle;Max_cycle;Signal;HPM_P1;HPM_P2
2021/06/07 00:00:26;;;;;;;5.35;3.25;;;17.20;72.40;;;;;;4808945;29;20067;-71
2021/06/07 00:02:54;;;;;;;6.07;2.90;;;17.20;71.90;;;;;;4812971;29;20054;-72
2021/06/07 00:05:23;;;;;;;5.13;3.13;;;17.20;71.20;;;;;;4790821;29;20475;-70
2021/06/07 00:07:52;;;;;;;3.88;2.97;;;17.20;70.80;;;;;;4791385;29;20062;-71
2021/06/07 00:10:20;;;;;;;3.40;2.78;;;17.20;71.30;;;;;;4790335;29;20064;-70
2021/06/07 00:12:48;;;;;;;6.15;3.22;;;17.10;71.70;;;;;;4804597;29;20063;-72
2021/06/07 00:15:20;;;;;;;5.93;3.05;;;17.10;72.10;;;;;;4797512;29;20082;-70
2021/06/07 00:17:48;;;;;;;3.72;2.90;;;17.10;72.40;;;;;;4804304;29;20055;-71
2021/06/07 00:20:34;;;;;;;4.18;2.50;;;17.00;72.50;;;;;;4822572;29;20078;-69
2021/06/07 00:23:03;;;;;;;4.85;2.88;;;17.00;72.90;;;;;;4809245;29;20074;-71
2021/06/07 00:25:32;;;;;;;5.32;2.80;;;16.90;72.90;;;;;;4801055;29;20067;-69
2021/06/07 00:28:00;;;;;;;5.47;3.20;;;16.90;73.10;;;;;;4807702;29;20451;-70
2021/06/07 00:30:30;;;;;;;4.80;3.03;;;16.80;73.20;;;;;;4788437;30;20059;-68
2021/06/07 00:32:58;;;;;;;6.93;3.28;;;16.80;72.90;;;;;;4789965;29;20055;-71
2021/06/07 00:35:29;;;;;;;5.28;3.00;;;16.80;72.70;;;;;;4801092;29;20056;-71
2021/06/07 00:37:58;;;;;;;8.00;3.25;;;16.80;72.50;;;;;;4789177;29;20085;-69
2021/06/07 00:40:29;;;;;;;4.22;2.90;;;16.80;72.30;;;;;;4804134;29;20483;-69
2021/06/07 00:42:58;;;;;;;6.18;3.15;;;16.80;72.10;;;;;;4796895;29;20081;-70
2021/06/07 00:45:30;;;;;;;5.30;3.03;;;16.80;72.20;;;;;;4808739;29;20470;-70
2021/06/07 00:48:00;;;;;;;5.15;2.90;;;16.80;72.10;;;;;;4810389;29;20074;-71
2021/06/07 00:50:49;;;;;;;6.20;3.03;;;16.80;72.00;;;;;;4800199;29;20047;-71
2021/06/07 00:53:19;;;;;;;5.40;2.75;;;16.80;72.10;;;;;;4786965;29;20070;-70
2021/06/07 00:55:56;;;;;;;3.58;2.80;;;16.80;71.90;;;;;;4789826;29;20074;-70
2021/06/07 00:58:29;;;;;;;6.32;2.90;;;16.80;72.00;;;;;;4790090;29;20512;-69
2021/06/07 01:00:59;;;;;;;6.65;2.65;;;16.80;72.00;;;;;;4796001;29;20063;-69
2021/06/07 01:03:29;;;;;;;4.88;2.95;;;16.80;72.00;;;;;;4794203;29;20085;-71
2021/06/07 01:05:58;;;;;;;6.55;3.17;;;16.80;71.90;;;;;;4808747;29;20485;-69
2021/06/07 01:08:28;;;;;;;7.53;3.33;;;16.80;71.90;;;;;;4796315;29;20371;-70
2021/06/07 01:10:57;;;;;;;6.93;3.30;;;16.60;71.80;;;;;;4788979;29;20058;-70
2021/06/07 01:13:25;;;;;;;6.43;3.00;;;16.60;71.70;;;;;;4799429;29;20370;-70
2021/06/07 01:15:56;;;;;;;9.30;3.65;;;16.60;71.90;;;;;;4807307;29;20069;-71
2021/06/07 01:18:29;;;;;;;6.75;3.13;;;16.60;72.00;;;;;;4808230;29;20059;-71
2021/06/07 01:21:10;;;;;;;4.57;3.30;;;16.60;72.10;;;;;;4808556;29;20074;-70
2021/06/07 01:23:39;;;;;;;11.73;3.63;;;16.50;72.10;;;;;;4783245;29;20052;-69
2021/06/07 01:26:07;;;;;;;8.02;3.17;;;16.60;72.40;;;;;;4777770;29;20055;-71
2021/06/07 01:28:37;;;;;;;5.93;3.10;;;16.50;72.70;;;;;;4808605;29;20066;-70
2021/06/07 01:31:06;;;;;;;5.97;2.85;;;16.40;72.80;;;;;;4807380;29;20368;-71
2021/06/07 01:33:37;;;;;;;4.40;2.90;;;16.40;73.00;;;;;;4822298;29;20055;-72
2021/06/07 01:36:06;;;;;;;7.25;3.67;;;16.30;73.10;;;;;;4807206;29;20065;-72
2021/06/07 01:38:35;;;;;;;8.27;3.35;;;16.30;73.00;;;;;;4808481;29;20058;-72
2021/06/07 01:41:07;;;;;;;5.18;3.53;;;16.30;73.00;;;;;;4822519;29;20066;-70
2021/06/07 01:43:37;;;;;;;5.93;3.37;;;16.30;73.00;;;;;;4795504;29;20490;-70
2021/06/07 01:46:06;;;;;;;10.57;3.60;;;16.30;73.20;;;;;;4793588;29;20058;-73
2021/06/07 01:48:36;;;;;;;12.02;3.85;;;16.30;73.20;;;;;;4811534;29;20057;-72
2021/06/07 01:51:06;;;;;;;3.42;2.97;;;16.30;73.20;;;;;;4786346;29;20056;-70
2021/06/07 01:53:35;;;;;;;3.95;3.20;;;16.30;73.30;;;;;;4789437;29;20391;-72
2021/06/07 01:56:06;;;;;;;4.90;2.88;;;16.30;73.40;;;;;;4781004;29;20066;-72
2021/06/07 01:58:52;;;;;;;6.03;3.03;;;16.20;73.60;;;;;;4784498;30;20062;-73
2021/06/07 02:01:21;;;;;;;5.53;3.00;;;16.20;73.80;;;;;;4771961;30;20068;-73
2021/06/07 02:03:50;;;;;;;6.07;3.70;;;16.20;73.90;;;;;;4777795;29;20084;-72
2021/06/07 02:06:23;;;;;;;5.65;3.45;;;16.20;74.10;;;;;;4807751;29;20050;-72
2021/06/07 02:08:53;;;;;;;7.70;3.72;;;16.20;74.30;;;;;;4792139;29;20066;-71
2021/06/07 02:11:27;;;;;;;6.00;3.55;;;16.20;74.30;;;;;;4788960;29;20063;-71
2021/06/07 02:14:00;;;;;;;5.97;3.60;;;16.30;74.40;;;;;;4807239;29;20070;-71
2021/06/07 02:16:32;;;;;;;7.82;3.85;;;16.30;74.50;;;;;;4788977;29;20070;-70
2021/06/07 02:19:01;;;;;;;6.07;3.58;;;16.30;74.60;;;;;;4788902;30;20051;-71
2021/06/07 02:21:32;;;;;;;6.90;4.03;;;16.30;74.70;;;;;;4789408;29;20055;-70
2021/06/07 02:24:06;;;;;;;5.43;3.88;;;16.30;74.80;;;;;;4802777;29;20059;-72
2021/06/07 02:26:36;;;;;;;6.88;4.28;;;16.30;74.80;;;;;;4787310;29;20402;-72
2021/06/07 02:29:08;;;;;;;9.98;4.22;;;16.30;74.80;;;;;;4794687;29;20471;-72
2021/06/07 02:31:37;;;;;;;4.55;3.75;;;16.30;74.90;;;;;;4802280;29;20054;-71
2021/06/07 02:34:08;;;;;;;6.00;3.70;;;16.30;74.90;;;;;;4795852;29;20403;-73
2021/06/07 02:36:38;;;;;;;6.30;3.90;;;16.30;75.00;;;;;;4807124;29;20065;-73
2021/06/07 02:39:09;;;;;;;7.80;4.00;;;16.30;75.10;;;;;;4807926;29;20062;-73
2021/06/07 02:41:39;;;;;;;4.25;3.80;;;16.30;75.20;;;;;;4807682;29;20055;-72
2021/06/07 02:44:10;;;;;;;4.50;3.70;;;16.30;75.20;;;;;;4790858;29;20398;-73
2021/06/07 02:46:38;;;;;;;6.93;3.55;;;16.30;75.30;;;;;;4789369;29;20055;-73
2021/06/07 02:49:06;;;;;;;5.03;3.50;;;16.30;75.30;;;;;;4796447;29;20478;-73
2021/06/07 02:51:35;;;;;;;8.05;4.10;;;16.30;75.40;;;;;;4789001;29;20398;-71
2021/06/07 02:54:04;;;;;;;5.32;3.45;;;16.30;75.50;;;;;;4789348;29;20182;-72
2021/06/07 02:56:31;;;;;;;5.80;3.75;;;16.30;75.50;;;;;;4788513;29;20074;-73
2021/06/07 02:59:01;;;;;;;4.43;3.58;;;16.30;75.60;;;;;;4789386;29;20071;-72
2021/06/07 03:01:30;;;;;;;4.75;4.07;;;16.30;75.60;;;;;;4798411;29;20390;-71
2021/06/07 03:03:58;;;;;;;7.13;4.28;;;16.20;75.70;;;;;;4806567;29;20070;-71
2021/06/07 03:06:27;;;;;;;6.97;4.25;;;16.30;75.60;;;;;;4807208;29;20553;-70
2021/06/07 03:08:55;;;;;;;7.38;3.95;;;16.20;75.60;;;;;;4821635;29;20368;-73
2021/06/07 03:11:24;;;;;;;6.03;4.28;;;16.20;75.70;;;;;;4806738;29;20051;-73
2021/06/07 03:13:52;;;;;;;7.18;4.25;;;16.20;75.70;;;;;;4791119;29;20070;-73
2021/06/07 03:16:19;;;;;;;7.85;4.38;;;16.20;75.70;;;;;;4802069;29;20059;-71
2021/06/07 03:18:47;;;;;;;8.15;4.57;;;16.20;75.80;;;;;;4793491;29;20067;-74
2021/06/07 03:21:17;;;;;;;6.15;4.25;;;16.20;75.80;;;;;;4793939;29;20051;-72
2021/06/07 03:23:45;;;;;;;6.15;4.70;;;16.10;75.80;;;;;;4804277;29;20058;-71
2021/06/07 03:26:13;;;;;;;7.22;4.20;;;16.10;75.90;;;;;;4797866;29;20059;-73
2021/06/07 03:28:41;;;;;;;6.18;4.35;;;16.10;76.00;;;;;;4792605;29;20071;-71
2021/06/07 03:31:11;;;;;;;5.55;4.43;;;16.10;76.00;;;;;;4791786;29;20055;-73
2021/06/07 03:33:39;;;;;;;7.75;4.90;;;16.00;76.00;;;;;;4789771;30;20062;-72
2021/06/07 03:36:08;;;;;;;5.60;4.78;;;16.00;76.00;;;;;;4805058;29;20051;-73
2021/06/07 03:38:36;;;;;;;6.38;4.88;;;16.00;76.00;;;;;;4791135;30;20059;-71
2021/06/07 03:41:05;;;;;;;7.00;5.00;;;16.00;76.10;;;;;;4792200;29;20062;-72
2021/06/07 03:43:36;;;;;;;7.95;4.40;;;16.00;76.10;;;;;;4795184;29;20059;-72
2021/06/07 03:46:04;;;;;;;6.43;4.88;;;16.00;76.10;;;;;;4806208;29;20055;-71
2021/06/07 03:48:33;;;;;;;5.82;4.70;;;16.00;76.10;;;;;;4793052;29;20059;-73
2021/06/07 03:51:02;;;;;;;5.45;4.43;;;16.00;76.10;;;;;;4808133;29;20055;-70
2021/06/07 03:53:30;;;;;;;6.57;4.30;;;16.00;76.10;;;;;;4807559;29;20067;-72
2021/06/07 03:55:58;;;;;;;8.90;5.20;;;16.00;76.10;;;;;;4788564;29;20051;-71
2021/06/07 03:58:27;;;;;;;10.07;4.88;;;16.00;76.10;;;;;;4788059;30;20376;-72
2021/06/07 04:00:55;;;;;;;6.80;4.60;;;16.00;75.90;;;;;;4780432;29;20060;-71
2021/06/07 04:03:23;;;;;;;6.18;4.72;;;15.90;75.90;;;;;;4799710;29;20055;-70
2021/06/07 04:05:52;;;;;;;7.07;4.93;;;15.90;75.90;;;;;;4810073;29;20063;-72
2021/06/07 04:08:20;;;;;;;6.57;5.03;;;15.90;75.90;;;;;;4809652;29;20085;-72
2021/06/07 04:10:48;;;;;;;6.90;4.80;;;15.90;75.90;;;;;;4801841;29;20051;-71
2021/06/07 04:13:16;;;;;;;7.55;5.05;;;15.90;75.90;;;;;;4792479;29;20371;-71
2021/06/07 04:15:44;;;;;;;6.20;4.70;;;15.90;75.80;;;;;;4811143;29;20059;-71
2021/06/07 04:18:12;;;;;;;8.15;4.97;;;15.90;75.80;;;;;;4799941;29;20502;-71
2021/06/07 04:20:40;;;;;;;5.72;4.93;;;15.80;75.80;;;;;;4791816;29;20059;-71
2021/06/07 04:23:12;;;;;;;6.22;4.45;;;15.90;75.90;;;;;;4797589;29;20054;-73
2021/06/07 04:25:39;;;;;;;5.15;4.43;;;15.90;75.90;;;;;;4791796;29;20055;-71
2021/06/07 04:28:07;;;;;;;6.93;4.28;;;15.90;75.90;;;;;;4791432;29;20062;-72
2021/06/07 04:30:36;;;;;;;8.07;5.38;;;15.90;76.00;;;;;;4790656;29;20055;-72
2021/06/07 04:33:08;;;;;;;8.50;5.18;;;15.90;76.00;;;;;;4791516;29;20078;-71
2021/06/07 04:35:37;;;;;;;7.97;4.95;;;15.90;76.10;;;;;;4793873;29;20050;-70
2021/06/07 04:38:05;;;;;;;8.48;5.03;;;16.00;76.00;;;;;;4808142;29;20059;-71
2021/06/07 04:40:36;;;;;;;7.05;4.93;;;16.00;76.10;;;;;;4792965;29;20066;-70
2021/06/07 04:43:07;;;;;;;9.73;4.82;;;16.00;76.20;;;;;;4808139;29;20063;-72
2021/06/07 04:45:37;;;;;;;8.57;5.35;;;16.00;76.20;;;;;;4804190;29;20063;-71
2021/06/07 04:48:06;;;;;;;6.40;4.78;;;15.90;76.30;;;;;;4803609;29;20070;-70
2021/06/07 04:50:37;;;;;;;5.72;4.97;;;16.00;76.40;;;;;;4806368;29;20054;-72
2021/06/07 04:53:07;;;;;;;6.53;4.90;;;15.90;76.40;;;;;;4809346;29;20060;-72
2021/06/07 04:55:44;;;;;;;9.35;5.35;;;16.00;76.50;;;;;;4790779;29;20055;-72
2021/06/07 04:58:18;;;;;;;6.55;4.80;;;15.90;76.50;;;;;;4798858;29;20073;-72
2021/06/07 05:00:50;;;;;;;7.20;5.05;;;15.90;76.40;;;;;;4809436;29;20070;-72
2021/06/07 05:03:19;;;;;;;9.65;6.28;;;15.90;76.40;;;;;;4822166;29;20489;-72
2021/06/07 05:05:47;;;;;;;10.10;6.00;;;15.90;76.40;;;;;;4823245;29;20379;-70
2021/06/07 05:08:15;;;;;;;8.35;6.57;;;15.90;76.20;;;;;;4808973;29;20059;-70
2021/06/07 05:10:43;;;;;;;10.82;6.40;;;16.00;76.00;;;;;;4806956;29;20051;-72
2021/06/07 05:13:13;;;;;;;10.98;6.38;;;16.00;75.80;;;;;;4808889;29;20059;-71
2021/06/07 05:15:42;;;;;;;13.10;6.75;;;16.00;75.50;;;;;;4795493;29;20051;-70
2021/06/07 05:18:11;;;;;;;8.80;6.80;;;16.00;75.30;;;;;;4789611;29;20059;-71
2021/06/07 05:20:40;;;;;;;9.32;7.63;;;16.10;75.20;;;;;;4805254;29;20062;-70
2021/06/07 05:23:10;;;;;;;9.88;7.03;;;16.00;75.10;;;;;;4798537;29;20410;-71
2021/06/07 05:25:39;;;;;;;10.20;7.55;;;16.00;75.00;;;;;;4797561;29;20148;-70
2021/06/07 05:28:09;;;;;;;10.55;7.82;;;16.10;74.90;;;;;;4804840;29;20359;-72
2021/06/07 05:30:40;;;;;;;11.45;7.25;;;16.10;74.70;;;;;;4780416;29;20369;-73
2021/06/07 05:33:09;;;;;;;11.82;8.35;;;16.00;74.50;;;;;;4793023;29;20062;-70
2021/06/07 05:35:41;;;;;;;10.95;7.82;;;16.00;74.50;;;;;;4804703;29;20051;-70
2021/06/07 05:38:10;;;;;;;14.40;8.18;;;16.00;74.40;;;;;;4789644;29;20051;-70
2021/06/07 05:40:39;;;;;;;12.13;7.70;;;16.00;74.50;;;;;;4788562;29;20063;-72
2021/06/07 05:43:08;;;;;;;8.73;7.88;;;16.00;74.50;;;;;;4789336;29;20070;-71
2021/06/07 05:45:37;;;;;;;9.98;8.00;;;16.00;74.60;;;;;;4790331;30;20076;-72
2021/06/07 05:48:06;;;;;;;10.63;7.93;;;16.10;74.70;;;;;;4794618;29;20051;-70
2021/06/07 05:50:36;;;;;;;15.73;8.52;;;16.10;74.60;;;;;;4806868;29;20069;-70
2021/06/07 05:53:04;;;;;;;10.45;8.43;;;16.10;74.50;;;;;;4784947;29;20059;-71
2021/06/07 05:55:36;;;;;;;11.95;8.68;;;16.20;74.50;;;;;;4776240;29;20071;-71
2021/06/07 05:58:10;;;;;;;17.23;8.50;;;16.20;74.40;;;;;;4797040;29;20078;-70
2021/06/07 06:00:41;;;;;;;12.48;9.45;;;16.20;74.40;;;;;;4804585;29;20498;-72
2021/06/07 06:03:10;;;;;;;10.93;9.13;;;16.20;74.40;;;;;;4802972;29;20055;-70
2021/06/07 06:05:40;;;;;;;12.00;9.63;;;16.20;74.30;;;;;;4790230;29;20063;-70
2021/06/07 06:08:09;;;;;;;15.15;9.02;;;16.10;74.30;;;;;;4809599;29;20062;-71
2021/06/07 06:10:39;;;;;;;13.23;9.25;;;16.20;74.30;;;;;;4795304;29;20051;-70
2021/06/07 06:13:27;;;;;;;10.25;8.65;;;16.20;74.40;;;;;;4809559;29;20400;-70
2021/06/07 06:15:55;;;;;;;11.65;9.27;;;16.20;74.30;;;;;;4802169;29;20055;-71
2021/06/07 06:18:23;;;;;;;13.95;9.45;;;16.20;74.40;;;;;;4796581;29;20074;-70
2021/06/07 06:20:51;;;;;;;16.00;9.98;;;16.20;74.50;;;;;;4793042;29;20506;-71
2021/06/07 06:23:19;;;;;;;15.27;10.25;;;16.20;74.60;;;;;;4788002;29;20059;-72
2021/06/07 06:25:47;;;;;;;14.93;9.73;;;16.20;74.60;;;;;;4803819;29;20051;-72
2021/06/07 06:28:15;;;;;;;14.48;9.80;;;16.30;74.50;;;;;;4789346;29;20055;-72
2021/06/07 06:30:43;;;;;;;14.48;10.88;;;16.30;74.50;;;;;;4795697;29;20390;-72
2021/06/07 06:33:11;;;;;;;16.10;11.00;;;16.30;74.50;;;;;;4793443;29;20055;-70
2021/06/07 06:35:39;;;;;;;15.57;10.82;;;16.30;74.60;;;;;;4790784;29;20066;-72
2021/06/07 06:38:07;;;;;;;15.43;11.20;;;16.40;74.70;;;;;;4797970;29;20073;-72
2021/06/07 06:40:37;;;;;;;16.30;11.63;;;16.40;74.70;;;;;;4807146;29;20082;-72
2021/06/07 06:43:06;;;;;;;20.98;11.85;;;16.40;74.80;;;;;;4795622;29;20059;-70
2021/06/07 06:45:40;;;;;;;16.35;11.50;;;16.40;74.80;;;;;;4807704;29;20065;-69
2021/06/07 06:48:09;;;;;;;22.45;12.60;;;16.40;74.80;;;;;;4799242;29;20471;-70
2021/06/07 06:50:40;;;;;;;20.83;12.35;;;16.40;74.90;;;;;;4787835;29;20051;-70
2021/06/07 06:53:12;;;;;;;16.42;12.40;;;16.40;75.00;;;;;;4788765;29;20055;-72
2021/06/07 06:55:43;;;;;;;19.10;12.70;;;16.40;75.20;;;;;;4794328;29;20490;-72
2021/06/07 06:58:10;;;;;;;20.55;14.60;;;16.40;75.20;;;;;;4815024;29;20054;-70
2021/06/07 07:00:40;;;;;;;22.35;15.10;;;16.50;75.40;;;;;;4806974;29;20063;-71
2021/06/07 07:03:19;;;;;;;20.17;14.70;;;16.40;75.60;;;;;;4806139;29;20055;-72
2021/06/07 07:05:48;;;;;;;20.92;14.27;;;16.40;75.80;;;;;;4793237;29;20051;-70
2021/06/07 07:08:17;;;;;;;18.90;13.63;;;16.40;75.90;;;;;;4791915;29;20063;-70
2021/06/07 07:10:45;;;;;;;19.20;13.95;;;16.40;76.00;;;;;;4791241;29;20059;-70
2021/06/07 07:13:13;;;;;;;23.65;13.65;;;16.40;76.10;;;;;;4805913;29;20056;-71
2021/06/07 07:15:42;;;;;;;18.98;13.60;;;16.50;76.20;;;;;;4793853;29;20059;-73
2021/06/07 07:18:11;;;;;;;22.33;13.23;;;16.50;76.30;;;;;;4791390;29;20074;-71
2021/06/07 07:20:41;;;;;;;17.80;12.45;;;16.50;76.40;;;;;;4788780;29;20070;-70
2021/06/07 07:23:11;;;;;;;19.02;12.43;;;16.60;76.40;;;;;;4790470;29;20501;-69
2021/06/07 07:25:40;;;;;;;18.73;13.80;;;16.60;76.50;;;;;;4794094;29;20398;-70
2021/06/07 07:28:09;;;;;;;21.42;14.65;;;16.60;76.60;;;;;;4799643;29;20058;-70
2021/06/07 07:30:38;;;;;;;17.98;13.75;;;16.70;76.60;;;;;;4792050;29;20527;-69
2021/06/07 07:33:11;;;;;;;19.48;14.07;;;16.70;76.60;;;;;;4821330;29;20370;-70
2021/06/07 07:35:40;;;;;;;19.30;13.65;;;16.70;76.50;;;;;;4791700;29;20510;-70
2021/06/07 07:38:08;;;;;;;18.35;13.50;;;16.70;76.50;;;;;;4790314;29;20058;-72
2021/06/07 07:40:39;;;;;;;19.77;13.95;;;16.80;76.60;;;;;;4791357;29;20059;-72
2021/06/07 07:43:09;;;;;;;19.13;13.70;;;16.80;76.70;;;;;;4784464;29;20063;-71
2021/06/07 07:45:39;;;;;;;17.23;13.65;;;16.80;76.70;;;;;;4789670;29;20059;-73
2021/06/07 07:48:08;;;;;;;19.75;13.90;;;16.80;76.60;;;;;;4791333;29;20055;-72
2021/06/07 07:50:37;;;;;;;15.30;12.93;;;16.80;76.40;;;;;;4790657;29;20055;-70
2021/06/07 07:53:05;;;;;;;18.92;13.02;;;16.80;76.40;;;;;;4784741;29;20487;-72
2021/06/07 07:55:35;;;;;;;22.23;13.77;;;16.80;76.50;;;;;;4791147;29;20074;-72
2021/06/07 07:58:07;;;;;;;18.88;14.27;;;16.80;76.50;;;;;;4795060;29;20067;-71
2021/06/07 08:00:35;;;;;;;17.27;14.02;;;16.80;76.40;;;;;;4794557;29;20059;-71
2021/06/07 08:03:03;;;;;;;18.95;13.93;;;16.80;76.50;;;;;;4792422;29;20070;-73
2021/06/07 08:05:33;;;;;;;21.02;14.20;;;16.80;76.60;;;;;;4790703;29;20055;-73
2021/06/07 08:08:03;;;;;;;18.33;14.10;;;16.80;76.60;;;;;;4790035;30;20069;-71
2021/06/07 08:10:32;;;;;;;16.30;14.02;;;16.90;76.50;;;;;;4802051;29;20070;-72
2021/06/07 08:13:02;;;;;;;17.38;14.10;;;16.90;76.30;;;;;;4804218;29;20058;-71
2021/06/07 08:15:34;;;;;;;14.43;12.13;;;16.90;76.20;;;;;;4790028;29;20051;-71
2021/06/07 08:18:05;;;;;;;16.45;12.75;;;16.90;76.20;;;;;;4788657;29;20055;-72
2021/06/07 08:20:33;;;;;;;15.90;12.23;;;17.00;76.10;;;;;;4798437;29;20059;-71
2021/06/07 08:23:02;;;;;;;20.38;13.25;;;17.00;76.00;;;;;;4807783;29;20349;-73
2021/06/07 08:25:31;;;;;;;17.02;12.70;;;17.10;76.00;;;;;;4808871;29;20047;-71
2021/06/07 08:28:03;;;;;;;15.57;12.35;;;17.10;76.20;;;;;;4806218;29;20077;-72
2021/06/07 08:30:33;;;;;;;15.10;12.45;;;17.20;76.30;;;;;;4788890;30;20055;-73
2021/06/07 08:33:03;;;;;;;16.08;11.63;;;17.30;76.00;;;;;;4792573;29;20067;-71
2021/06/07 08:35:33;;;;;;;15.05;11.88;;;17.30;76.10;;;;;;4796258;29;20388;-72
2021/06/07 08:38:02;;;;;;;15.68;12.13;;;17.30;76.00;;;;;;4793853;29;20047;-71
2021/06/07 08:40:30;;;;;;;17.67;12.60;;;17.40;75.90;;;;;;4786318;29;20387;-70
2021/06/07 08:42:59;;;;;;;19.20;12.25;;;17.40;75.70;;;;;;4796185;29;20081;-71
2021/06/07 08:45:28;;;;;;;15.48;12.65;;;17.40;75.50;;;;;;4799033;29;20055;-70
2021/06/07 08:47:56;;;;;;;14.23;11.18;;;17.50;75.50;;;;;;4793552;29;20067;-72
2021/06/07 08:50:27;;;;;;;16.02;11.73;;;17.50;75.60;;;;;;4788215;29;20048;-70
2021/06/07 08:52:56;;;;;;;13.18;11.02;;;17.70;75.50;;;;;;4789231;29;20075;-71
2021/06/07 08:55:31;;;;;;;14.20;11.55;;;17.70;75.10;;;;;;4789472;29;20066;-73
2021/06/07 08:58:04;;;;;;;17.10;12.35;;;17.80;74.80;;;;;;4791325;29;20751;-72
2021/06/07 09:00:37;;;;;;;17.80;13.13;;;17.80;74.70;;;;;;4787231;30;20058;-73
2021/06/07 09:03:07;;;;;;;14.85;12.38;;;17.80;75.00;;;;;;4786466;29;20067;-70
2021/06/07 09:05:37;;;;;;;17.23;10.90;;;17.80;75.00;;;;;;4788499;29;20059;-70
2021/06/07 09:08:10;;;;;;;12.80;11.38;;;17.80;74.90;;;;;;4788405;29;20063;-72
2021/06/07 09:10:53;;;;;;;18.70;14.05;;;17.90;74.60;;;;;;4786672;30;20051;-70
2021/06/07 09:13:23;;;;;;;12.98;11.60;;;18.00;74.10;;;;;;4786344;29;20079;-71
2021/06/07 09:15:55;;;;;;;13.68;10.70;;;18.00;74.10;;;;;;4771602;30;20070;-73
2021/06/07 09:18:28;;;;;;;16.83;13.13;;;18.10;74.00;;;;;;4771321;29;20074;-72
2021/06/07 09:21:18;;;;;;;12.07;10.77;;;18.10;73.90;;;;;;4787572;29;20059;-73
2021/06/07 09:23:51;;;;;;;13.20;10.88;;;18.20;73.80;;;;;;4787743;29;20047;-72
2021/06/07 09:26:28;;;;;;;16.42;11.55;;;18.30;73.70;;;;;;4787856;30;20367;-73
2021/06/07 09:29:03;;;;;;;12.98;9.35;;;18.40;73.40;;;;;;4788256;30;20395;-73
2021/06/07 09:31:38;;;;;;;9.48;8.38;;;18.50;73.20;;;;;;4788270;29;20063;-70
2021/06/07 09:34:08;;;;;;;11.50;9.77;;;18.50;72.80;;;;;;4803514;29;20055;-69
2021/06/07 09:36:44;;;;;;;11.37;8.30;;;18.50;72.50;;;;;;4801589;29;20056;-72
2021/06/07 09:39:17;;;;;;;13.38;10.40;;;18.60;72.60;;;;;;4778111;29;20318;-70
2021/06/07 09:41:51;;;;;;;13.10;9.07;;;18.70;72.40;;;;;;4789156;29;20113;-70
2021/06/07 09:44:46;;;;;;;8.30;7.43;;;18.80;72.20;;;;;;4789004;29;20055;-72
2021/06/07 09:47:24;;;;;;;13.40;8.43;;;18.90;71.70;;;;;;4788004;30;20131;-70
2021/06/07 09:49:58;;;;;;;12.38;8.70;;;19.00;71.00;;;;;;4787607;29;20058;-71
2021/06/07 09:52:28;;;;;;;8.85;8.00;;;19.10;70.70;;;;;;4787877;30;20051;-70
2021/06/07 09:55:23;;;;;;;9.85;8.60;;;19.30;70.50;;;;;;4788317;29;20494;-72
2021/06/07 09:57:54;;;;;;;8.80;6.97;;;19.30;70.40;;;;;;4782527;29;20052;-73
2021/06/07 10:00:43;;;;;;;14.70;7.10;;;19.50;70.40;;;;;;4771930;30;20059;-71
2021/06/07 10:03:25;;;;;;;10.02;8.70;;;19.70;70.00;;;;;;4775858;29;20066;-72
2021/06/07 10:05:58;;;;;;;8.32;7.07;;;19.80;69.30;;;;;;4780272;30;20070;-71
2021/06/07 10:08:43;;;;;;;8.40;7.22;;;19.80;69.00;;;;;;4789053;29;20074;-73
2021/06/07 10:11:40;;;;;;;7.47;6.70;;;19.90;68.80;;;;;;4800470;29;20386;-71
2021/06/07 10:14:26;;;;;;;9.50;7.03;;;20.00;68.40;;;;;;4793455;29;20055;-70
2021/06/07 10:17:03;;;;;;;8.82;6.80;;;20.10;67.70;;;;;;4757311;30;20047;-72
2021/06/07 10:22:08;;;;;;;7.75;6.00;;;20.30;66.80;;;;;;4801491;29;20467;-71
2021/06/07 10:24:36;;;;;;;6.55;5.32;;;20.40;66.40;;;;;;4786843;29;20059;-70
2021/06/07 10:27:05;;;;;;;6.95;5.30;;;20.40;65.40;;;;;;4787646;29;20066;-72
2021/06/07 10:29:39;;;;;;;6.90;5.35;;;20.40;65.00;;;;;;4786281;29;20059;-72
2021/06/07 10:32:24;;;;;;;7.57;5.45;;;20.40;64.10;;;;;;4788534;29;20059;-71
2021/06/07 10:34:53;;;;;;;5.45;4.38;;;20.30;64.20;;;;;;4791340;29;20415;-70
2021/06/07 10:37:21;;;;;;;4.95;4.13;;;20.30;64.40;;;;;;4790810;29;20498;-69
2021/06/07 10:39:50;;;;;;;4.90;4.00;;;20.30;63.80;;;;;;4806451;29;20509;-69
2021/06/07 10:42:33;;;;;;;;;;;20.30;63.60;;;;;;4792530;29;20379;-71
2021/06/07 10:45:04;;;;;;;5.80;3.00;;;20.30;62.90;;;;;;4790337;29;19933;-71
2021/06/07 10:47:45;;;;;;;4.72;3.15;;;20.30;63.10;;;;;;4790196;30;20051;-71
2021/06/07 10:50:18;;;;;;;4.53;3.55;;;20.40;62.60;;;;;;4789863;29;20055;-70
2021/06/07 10:52:57;;;;;;;3.40;3.10;;;20.50;62.00;;;;;;4789900;30;20390;-72
2021/06/07 10:55:41;;;;;;;5.40;3.15;;;20.40;61.90;;;;;;4806228;29;20055;-72
2021/06/07 10:58:13;;;;;;;4.85;3.97;;;20.40;62.00;;;;;;4806090;29;20399;-71
2021/06/07 11:00:47;;;;;;;5.32;4.32;;;20.40;62.10;;;;;;4792475;29;20363;-71
2021/06/07 11:03:24;;;;;;;4.95;3.53;;;20.30;62.00;;;;;;4805584;29;20475;-72
2021/06/07 11:05:59;;;;;;;5.40;3.10;;;20.40;61.70;;;;;;4791818;30;20055;-70
2021/06/07 11:08:32;;;;;;;4.97;3.60;;;20.30;60.80;;;;;;4789610;29;20063;-71
2021/06/07 11:11:03;;;;;;;5.68;3.30;;;20.30;60.80;;;;;;4805954;29;20051;-71
2021/06/07 11:13:46;;;;;;;5.10;3.47;;;20.30;61.20;;;;;;4806893;29;20055;-71
2021/06/07 11:16:33;;;;;;;3.97;2.88;;;20.50;61.00;;;;;;4791903;29;20051;-70
2021/06/07 11:19:09;;;;;;;4.00;2.38;;;20.60;60.00;;;;;;4792730;29;20063;-70
2021/06/07 11:22:02;;;;;;;4.78;1.90;;;20.70;59.10;;;;;;4787748;29;20078;-70
2021/06/07 11:24:36;;;;;;;5.57;2.30;;;20.80;58.40;;;;;;4791505;29;20062;-70
2021/06/07 11:27:37;;;;;;;3.08;1.95;;;20.80;57.20;;;;;;4777036;30;20051;-72
2021/06/07 11:30:09;;;;;;;3.42;2.28;;;20.80;56.40;;;;;;4790672;30;20051;-71
2021/06/07 11:32:40;;;;;;;2.83;1.87;;;20.80;55.90;;;;;;4806488;29;20463;-70
2021/06/07 11:35:08;;;;;;;5.10;1.60;;;20.90;55.70;;;;;;4806940;29;20757;-71
2021/06/07 11:37:37;;;;;;;6.10;2.17;;;20.80;55.80;;;;;;4790302;29;20062;-70
2021/06/07 11:40:08;;;;;;;3.92;1.95;;;20.90;56.00;;;;;;4791481;29;20070;-70
2021/06/07 11:43:03;;;;;;;5.35;1.73;;;20.90;55.90;;;;;;4791360;30;20577;-71
2021/06/07 11:45:41;;;;;;;4.82;2.00;;;20.90;55.10;;;;;;4805869;29;20067;-72
2021/06/07 11:48:10;;;;;;;2.72;1.90;;;21.00;55.30;;;;;;4792237;29;20055;-72
2021/06/07 11:50:41;;;;;;;2.60;2.17;;;21.00;55.40;;;;;;4790075;30;20074;-72
2021/06/07 11:53:17;;;;;;;4.90;2.50;;;21.10;55.60;;;;;;4792116;29;20063;-72
2021/06/07 11:55:48;;;;;;;2.95;2.35;;;21.20;55.80;;;;;;4805970;29;20059;-72
2021/06/07 11:58:25;;;;;;;3.20;2.20;;;21.30;55.80;;;;;;4804580;29;20047;-70
2021/06/07 12:01:03;;;;;;;1.90;1.10;;;21.40;55.60;;;;;;4790870;30;20055;-70
2021/06/07 12:03:32;;;;;;;2.08;0.90;;;21.50;54.30;;;;;;4803373;29;20066;-71
2021/06/07 12:06:01;;;;;;;1.60;1.10;;;21.60;53.00;;;;;;4793111;29;20059;-71
2021/06/07 12:08:29;;;;;;;1.63;0.90;;;21.70;52.30;;;;;;4805155;29;20055;-72
2021/06/07 12:11:02;;;;;;;4.30;0.88;;;21.70;51.70;;;;;;4790707;29;20062;-71
2021/06/07 12:13:34;;;;;;;1.17;0.80;;;21.70;51.40;;;;;;4805895;29;20055;-71
2021/06/07 12:16:12;;;;;;;1.40;0.73;;;21.60;51.10;;;;;;4791127;29;20055;-72
2021/06/07 12:18:46;;;;;;;2.17;1.17;;;21.70;51.30;;;;;;4791529;29;20398;-72
2021/06/07 12:21:18;;;;;;;1.48;1.17;;;21.70;51.30;;;;;;4787863;30;20051;-72
2021/06/07 12:24:01;;;;;;;1.50;0.87;;;21.60;51.20;;;;;;4789916;29;20075;-72
2021/06/07 12:29:37;;;;;;;1.75;1.02;;;21.50;49.80;;;;;;4772508;30;20514;-71
2021/06/07 12:32:11;;;;;;;4.10;1.10;;;21.30;49.20;;;;;;4783399;29;20506;-69
2021/06/07 12:35:04;;;;;;;1.90;0.85;;;21.30;49.80;;;;;;4804993;29;20059;-72
2021/06/07 12:38:01;;;;;;;1.42;0.88;;;21.30;50.50;;;;;;4787965;30;20058;-71
2021/06/07 12:40:35;;;;;;;1.15;0.95;;;21.30;50.10;;;;;;4790587;29;20458;-72
2021/06/07 12:43:06;;;;;;;3.90;1.00;;;21.40;50.20;;;;;;4803205;29;20063;-71
2021/06/07 12:45:49;;;;;;;1.17;0.93;;;21.50;50.50;;;;;;4803968;29;20059;-72
2021/06/07 12:48:25;;;;;;;1.38;0.80;;;21.50;50.30;;;;;;4791693;29;20150;-70
2021/06/07 12:50:59;;;;;;;0.70;0.70;;;21.60;49.90;;;;;;4802993;29;20050;-73
2021/06/07 12:53:29;;;;;;;1.17;0.80;;;21.70;49.60;;;;;;4803074;29;20055;-71
2021/06/07 12:56:02;;;;;;;3.33;0.77;;;21.80;49.00;;;;;;4789412;29;20071;-70
2021/06/07 12:58:32;;;;;;;0.70;0.70;;;21.80;49.10;;;;;;4804031;29;20047;-72
2021/06/07 13:01:06;;;;;;;0.95;0.77;;;21.90;48.70;;;;;;4789767;29;20059;-70
2021/06/07 13:03:36;;;;;;;0.60;0.60;;;22.00;47.90;;;;;;4788884;29;20059;-71
2021/06/07 13:06:04;;;;;;;1.25;0.70;;;22.00;47.50;;;;;;4789473;29;20073;-72
2021/06/07 13:08:49;;;;;;;1.05;0.60;;;22.10;46.10;;;;;;4789491;29;20059;-72